Terminal Aerodrome Forecast
Issued by NWS

Home | Current Version | Previous Version | Text Only | Print | Product List | Glossary On
Versions: 1 2 3 4 5 6 7 8 9 10 11 12 13 14 15 16 17 18 19 20 21 22 23 24 25 26 27 28 29 30 31 32 33 34 35 36 37 38 39 40
000
FTUS43 KPAH 211720
TAFOWB
TAF
KOWB 211720Z 2118/2218 17006KT P6SM VCSH OVC040
     FM212200 16003KT P6SM SCT025 OVC040
     FM220600 00000KT 6SM BR OVC010
      TEMPO 2208/2212 2SM BR OVC008
     FM221500 19005KT P6SM SCT025 BKN050=

USA.gov is the U.S. government's official web portal to all federal, state and local government web resources and services.